Time;durP1;ratioP1;P1;durP2;ratioP2;P2;SDS_P1;SDS_P2;PMS_P1;PMS_P2;Temp;Humidity;BMP_temperature;BMP_pressure;BME280_temperature;BME280_humidity;BME280_pressure;Samples;Min_cycle;Max_cycle;Signal;HPM_P1;HPM_P2
2021/09/10 00:00:16;;;;;;;;;4.20;4.20;;;;;;;;5019420;28;8905;-79
2021/09/10 00:02:43;;;;;;;;;5.00;5.00;;;;;;;;5020409;28;9016;-82
2021/09/10 00:05:12;;;;;;;;;5.00;5.00;;;;;;;;5019261;28;8873;-76
2021/09/10 00:07:40;;;;;;;;;4.60;3.20;;;;;;;;5020640;28;8846;-77
2021/09/10 00:10:09;;;;;;;;;4.60;4.60;;;;;;;;5020844;28;8858;-81
2021/09/10 00:12:36;;;;;;;;;6.20;5.00;;;;;;;;5020813;28;8892;-82
2021/09/10 00:15:05;;;;;;;;;5.20;4.00;;;;;;;;5023626;28;8865;-77
2021/09/10 00:17:32;;;;;;;;;7.20;5.20;;;;;;;;5024183;28;8893;-82
2021/09/10 00:19:59;;;;;;;;;4.20;4.20;;;;;;;;5022608;28;8905;-81
2021/09/10 00:22:28;;;;;;;;;4.40;4.40;;;;;;;;5024614;28;8881;-82
2021/09/10 00:24:55;;;;;;;;;6.20;4.60;;;;;;;;5025341;28;8888;-81
2021/09/10 00:27:23;;;;;;;;;4.00;4.00;;;;;;;;5024341;28;8870;-82
2021/09/10 00:29:50;;;;;;;;;4.60;4.60;;;;;;;;5023530;28;8862;-80
2021/09/10 00:32:17;;;;;;;;;5.00;5.00;;;;;;;;5023410;28;8806;-79
2021/09/10 00:34:45;;;;;;;;;3.00;3.00;;;;;;;;5020603;28;8862;-81
2021/09/10 00:37:12;;;;;;;;;6.80;6.80;;;;;;;;5023751;28;8968;-81
2021/09/10 00:39:41;;;;;;;;;4.00;4.00;;;;;;;;5022868;28;8906;-81
2021/09/10 00:42:08;;;;;;;;;5.00;5.00;;;;;;;;5023177;28;8899;-81
2021/09/10 00:44:35;;;;;;;;;3.40;3.40;;;;;;;;5022773;28;8872;-81
2021/09/10 00:47:03;;;;;;;;;6.00;6.00;;;;;;;;5023317;28;8880;-80
2021/09/10 00:49:30;;;;;;;;;6.20;5.00;;;;;;;;5023901;28;8845;-81
2021/09/10 00:51:58;;;;;;;;;5.00;5.00;;;;;;;;5023200;28;8877;-82
2021/09/10 00:54:25;;;;;;;;;6.00;6.00;;;;;;;;5022488;28;8877;-81
2021/09/10 00:56:54;;;;;;;;;2.00;2.00;;;;;;;;5021546;28;8857;-80
2021/09/10 00:59:22;;;;;;;;;6.00;6.00;;;;;;;;5022454;28;8978;-81
2021/09/10 01:01:50;;;;;;;;;6.40;5.00;;;;;;;;5020736;28;8907;-81
2021/09/10 01:04:18;;;;;;;;;4.60;4.20;;;;;;;;5023631;28;8996;-80
2021/09/10 01:06:46;;;;;;;;;6.60;5.00;;;;;;;;5025078;28;8890;-81
2021/09/10 01:09:14;;;;;;;;;4.60;4.60;;;;;;;;5023994;28;8869;-81
2021/09/10 01:11:42;;;;;;;;;5.60;5.60;;;;;;;;5023257;28;8876;-81
2021/09/10 01:14:11;;;;;;;;;6.80;6.80;;;;;;;;5022260;28;8865;-81
2021/09/10 01:16:38;;;;;;;;;3.00;3.00;;;;;;;;5024110;28;9067;-81
2021/09/10 01:19:15;;;;;;;;;5.80;3.60;;;;;;;;5023265;28;9043;-81
2021/09/10 01:21:45;;;;;;;;;3.60;3.60;;;;;;;;5023428;28;8858;-80
2021/09/10 01:24:12;;;;;;;;;5.00;5.00;;;;;;;;5022747;28;8846;-81
2021/09/10 01:26:41;;;;;;;;;4.60;4.60;;;;;;;;5023876;28;8873;-79
2021/09/10 01:29:08;;;;;;;;;5.00;5.00;;;;;;;;5022969;28;8873;-80
2021/09/10 01:31:35;;;;;;;;;7.20;4.80;;;;;;;;4978575;28;8870;-79
2021/09/10 01:34:03;;;;;;;;;4.00;4.00;;;;;;;;4974162;28;8977;-81
2021/09/10 01:36:30;;;;;;;;;4.40;4.40;;;;;;;;4971010;28;8975;-81
2021/09/10 01:38:58;;;;;;;;;4.80;4.80;;;;;;;;4982811;28;8858;-81
2021/09/10 01:41:25;;;;;;;;;4.40;4.40;;;;;;;;4968051;28;8859;-79
2021/09/10 01:43:53;;;;;;;;;3.80;3.80;;;;;;;;4973993;28;8881;-81
2021/09/10 01:46:21;;;;;;;;;4.60;4.60;;;;;;;;4970953;28;8869;-79
2021/09/10 01:48:49;;;;;;;;;6.00;6.00;;;;;;;;4974925;28;8869;-82
2021/09/10 01:51:17;;;;;;;;;5.00;3.40;;;;;;;;4979048;28;8887;-82
2021/09/10 01:53:44;;;;;;;;;2.60;2.60;;;;;;;;4981412;28;8875;-81
2021/09/10 01:56:12;;;;;;;;;5.00;3.40;;;;;;;;4971275;28;9668;-82
2021/09/10 01:58:39;;;;;;;;;7.00;7.00;;;;;;;;4975785;28;8863;-80
2021/09/10 02:01:08;;;;;;;;;5.20;4.00;;;;;;;;4971369;28;8849;-79
2021/09/10 02:03:35;;;;;;;;;3.60;3.60;;;;;;;;4975363;28;8868;-79
2021/09/10 02:06:02;;;;;;;;;5.20;5.00;;;;;;;;4970248;28;8897;-81
2021/09/10 02:08:29;;;;;;;;;5.80;5.40;;;;;;;;4975065;28;9700;-81
2021/09/10 02:10:57;;;;;;;;;4.00;4.00;;;;;;;;4971775;28;8931;-80
2021/09/10 02:13:24;;;;;;;;;4.20;4.20;;;;;;;;4973732;28;8872;-82
2021/09/10 02:15:52;;;;;;;;;5.00;5.00;;;;;;;;4969181;28;8873;-81
2021/09/10 02:18:20;;;;;;;;;6.60;5.00;;;;;;;;4974215;28;8886;-79
2021/09/10 02:20:47;;;;;;;;;4.40;4.40;;;;;;;;4971320;28;8932;-80
2021/09/10 02:23:15;;;;;;;;;4.00;4.00;;;;;;;;4976269;28;8847;-83
2021/09/10 02:25:42;;;;;;;;;5.00;5.00;;;;;;;;4976193;28;8853;-81
2021/09/10 02:28:10;;;;;;;;;7.60;5.60;;;;;;;;4974340;28;8871;-82
2021/09/10 02:30:37;;;;;;;;;5.60;5.60;;;;;;;;5001126;28;8774;-82
2021/09/10 02:33:05;;;;;;;;;5.60;5.60;;;;;;;;5020310;28;8950;-82
2021/09/10 02:35:33;;;;;;;;;5.80;5.80;;;;;;;;5020147;28;8909;-81
2021/09/10 02:38:01;;;;;;;;;5.80;5.80;;;;;;;;5021308;28;8869;-82
2021/09/10 02:40:28;;;;;;;;;9.40;8.00;;;;;;;;5022595;28;8857;-79
2021/09/10 02:42:56;;;;;;;;;5.60;5.60;;;;;;;;5021635;28;8957;-82
2021/09/10 02:45:23;;;;;;;;;5.00;5.00;;;;;;;;5019066;28;8868;-82
2021/09/10 02:47:50;;;;;;;;;6.40;6.40;;;;;;;;5020118;28;8976;-82
2021/09/10 02:50:18;;;;;;;;;5.40;5.40;;;;;;;;5021175;28;8900;-81
2021/09/10 02:52:47;;;;;;;;;7.00;7.00;;;;;;;;5021967;28;8972;-82
2021/09/10 02:55:15;;;;;;;;;4.20;4.20;;;;;;;;5020207;28;9043;-81
2021/09/10 02:57:43;;;;;;;;;7.80;7.80;;;;;;;;5021541;28;8865;-82
2021/09/10 03:00:10;;;;;;;;;5.20;5.20;;;;;;;;5020470;28;8911;-82
2021/09/10 03:02:38;;;;;;;;;5.60;5.60;;;;;;;;5019644;28;8919;-82
2021/09/10 03:05:06;;;;;;;;;5.40;4.80;;;;;;;;5023454;28;8858;-81
2021/09/10 03:07:34;;;;;;;;;6.00;6.00;;;;;;;;5021626;28;8880;-82
2021/09/10 03:10:03;;;;;;;;;6.00;6.00;;;;;;;;5021921;28;8893;-81
2021/09/10 03:12:30;;;;;;;;;5.80;5.80;;;;;;;;5020313;28;8905;-81
2021/09/10 03:14:58;;;;;;;;;5.60;5.60;;;;;;;;5021542;28;8861;-80
2021/09/10 03:17:25;;;;;;;;;4.80;4.80;;;;;;;;5018077;28;9005;-79
2021/09/10 03:19:52;;;;;;;;;8.00;6.40;;;;;;;;5021634;28;8870;-80
2021/09/10 03:22:19;;;;;;;;;6.80;6.00;;;;;;;;5020017;28;8842;-80
2021/09/10 03:24:47;;;;;;;;;5.00;5.00;;;;;;;;5022476;28;9492;-81
2021/09/10 03:27:15;;;;;;;;;4.00;4.00;;;;;;;;5021849;28;8870;-81
2021/09/10 03:29:43;;;;;;;;;6.60;6.60;;;;;;;;5018696;28;8923;-81
2021/09/10 03:32:10;;;;;;;;;6.00;6.00;;;;;;;;5019916;28;9576;-80
2021/09/10 03:34:38;;;;;;;;;5.80;5.20;;;;;;;;5018676;28;8927;-82
2021/09/10 03:37:05;;;;;;;;;6.60;6.00;;;;;;;;5019960;28;8918;-81
2021/09/10 03:39:32;;;;;;;;;6.40;6.00;;;;;;;;5019911;28;8834;-82
2021/09/10 03:42:00;;;;;;;;;6.60;6.60;;;;;;;;5020657;28;8882;-81
2021/09/10 03:44:29;;;;;;;;;7.00;6.80;;;;;;;;5021525;28;8842;-81
2021/09/10 03:46:58;;;;;;;;;6.40;6.40;;;;;;;;5019575;28;8924;-82
2021/09/10 03:49:26;;;;;;;;;6.00;6.00;;;;;;;;5025516;28;9632;-82
2021/09/10 03:51:54;;;;;;;;;6.60;6.60;;;;;;;;5024692;28;8854;-82
2021/09/10 03:54:21;;;;;;;;;5.40;5.40;;;;;;;;5025082;28;8866;-82
2021/09/10 03:56:48;;;;;;;;;2.80;2.80;;;;;;;;5021391;28;8888;-81
2021/09/10 03:59:18;;;;;;;;;7.00;7.00;;;;;;;;5025136;28;8905;-82
2021/09/10 04:01:47;;;;;;;;;4.80;4.80;;;;;;;;5027597;28;8914;-81
2021/09/10 04:04:14;;;;;;;;;5.80;5.80;;;;;;;;5027216;28;8916;-80
2021/09/10 04:06:41;;;;;;;;;4.80;4.80;;;;;;;;5028031;28;8846;-82
2021/09/10 04:09:08;;;;;;;;;5.00;5.00;;;;;;;;5031887;28;9028;-81
2021/09/10 04:11:37;;;;;;;;;7.60;7.60;;;;;;;;5026884;28;8866;-79
2021/09/10 04:14:04;;;;;;;;;8.20;6.20;;;;;;;;5015672;28;8861;-80
2021/09/10 04:16:33;;;;;;;;;5.80;5.80;;;;;;;;5024145;28;8873;-80
2021/09/10 04:19:02;;;;;;;;;5.00;5.00;;;;;;;;5026455;28;8890;-80
2021/09/10 04:21:29;;;;;;;;;5.40;5.40;;;;;;;;5025208;28;8995;-82
2021/09/10 04:23:56;;;;;;;;;4.00;4.00;;;;;;;;5026670;28;8858;-83
2021/09/10 04:26:24;;;;;;;;;7.00;5.60;;;;;;;;5025161;28;8886;-81
2021/09/10 04:28:51;;;;;;;;;5.00;4.00;;;;;;;;5025392;28;8955;-82
2021/09/10 04:31:19;;;;;;;;;3.20;3.20;;;;;;;;5023083;28;8976;-82
2021/09/10 04:33:47;;;;;;;;;8.40;6.40;;;;;;;;5026432;28;8892;-83
2021/09/10 04:36:16;;;;;;;;;12.80;12.80;;;;;;;;5025732;28;8881;-83
2021/09/10 04:38:44;;;;;;;;;10.20;8.80;;;;;;;;5026136;28;8870;-85
2021/09/10 04:41:12;;;;;;;;;4.80;4.80;;;;;;;;5025682;28;8837;-83
2021/09/10 04:43:39;;;;;;;;;6.20;5.00;;;;;;;;5025276;28;8890;-83
2021/09/10 04:46:06;;;;;;;;;3.20;3.20;;;;;;;;5025928;28;8880;-83
2021/09/10 04:48:34;;;;;;;;;5.00;3.40;;;;;;;;5024387;28;8889;-82
2021/09/10 04:51:01;;;;;;;;;4.40;4.40;;;;;;;;5024751;28;8869;-83
2021/09/10 04:53:30;;;;;;;;;3.80;3.80;;;;;;;;5024666;28;8874;-83
2021/09/10 04:55:57;;;;;;;;;5.20;5.20;;;;;;;;5023445;28;8878;-82
2021/09/10 04:58:25;;;;;;;;;5.00;3.40;;;;;;;;5023813;28;8888;-83
2021/09/10 05:00:54;;;;;;;;;4.00;4.00;;;;;;;;5022092;28;8810;-82
2021/09/10 05:03:27;;;;;;;;;6.00;6.00;;;;;;;;5025149;28;8846;-83
2021/09/10 05:05:54;;;;;;;;;5.00;5.00;;;;;;;;5023702;28;8996;-83
2021/09/10 05:08:21;;;;;;;;;4.40;4.40;;;;;;;;5025502;28;8897;-83
2021/09/10 05:10:50;;;;;;;;;4.00;4.00;;;;;;;;5020679;28;8919;-83
2021/09/10 05:13:17;;;;;;;;;3.80;3.80;;;;;;;;5025599;28;8870;-82
2021/09/10 05:15:44;;;;;;;;;4.60;4.60;;;;;;;;5020248;28;8909;-84
2021/09/10 05:18:12;;;;;;;;;5.00;5.00;;;;;;;;5021895;28;8890;-76
2021/09/10 05:20:40;;;;;;;;;5.80;5.00;;;;;;;;5022649;28;8862;-75
2021/09/10 05:23:07;;;;;;;;;5.00;5.00;;;;;;;;5019671;28;8881;-76
2021/09/10 05:25:34;;;;;;;;;5.40;5.40;;;;;;;;5022750;28;8890;-74
2021/09/10 05:28:03;;;;;;;;;6.60;6.60;;;;;;;;5022660;28;8865;-75
2021/09/10 05:30:30;;;;;;;;;6.60;5.80;;;;;;;;5022241;28;8846;-74
2021/09/10 05:32:57;;;;;;;;;4.00;4.00;;;;;;;;5023330;28;8846;-74
2021/09/10 05:35:25;;;;;;;;;4.80;4.80;;;;;;;;5021868;28;8891;-75
2021/09/10 05:37:52;;;;;;;;;6.40;5.00;;;;;;;;5022707;28;8876;-73
2021/09/10 05:40:21;;;;;;;;;7.20;4.60;;;;;;;;5022528;28;9744;-74
2021/09/10 05:42:49;;;;;;;;;5.20;5.20;;;;;;;;5021746;28;8874;-74
2021/09/10 05:45:18;;;;;;;;;5.80;5.80;;;;;;;;5020143;28;8886;-77
2021/09/10 05:47:45;;;;;;;;;7.40;4.80;;;;;;;;5023162;28;8889;-75
2021/09/10 05:50:13;;;;;;;;;6.20;6.20;;;;;;;;5021960;28;8925;-74
2021/09/10 05:52:41;;;;;;;;;6.60;5.00;;;;;;;;5022471;28;8984;-75
2021/09/10 05:55:09;;;;;;;;;6.20;6.20;;;;;;;;5022898;28;8996;-74
2021/09/10 05:57:37;;;;;;;;;5.60;5.60;;;;;;;;5023416;28;8866;-74
2021/09/10 06:00:05;;;;;;;;;6.00;4.80;;;;;;;;5023233;28;9624;-76
2021/09/10 06:02:34;;;;;;;;;5.20;3.60;;;;;;;;5021606;28;9651;-75
2021/09/10 06:05:01;;;;;;;;;5.00;5.00;;;;;;;;5024920;28;8853;-76
2021/09/10 06:07:29;;;;;;;;;5.00;5.00;;;;;;;;5022516;28;8857;-73
2021/09/10 06:09:56;;;;;;;;;5.40;5.40;;;;;;;;5021175;28;8888;-75
2021/09/10 06:12:24;;;;;;;;;6.40;6.40;;;;;;;;5020646;28;8992;-75
2021/09/10 06:14:52;;;;;;;;;5.20;5.20;;;;;;;;5019722;28;9059;-77
2021/09/10 06:17:19;;;;;;;;;5.00;5.00;;;;;;;;5021713;28;9683;-88
2021/09/10 06:19:48;;;;;;;;;7.00;5.60;;;;;;;;5021774;28;8992;-80
2021/09/10 06:22:16;;;;;;;;;10.00;7.00;;;;;;;;5019771;28;8999;-76
2021/09/10 06:24:45;;;;;;;;;5.00;5.00;;;;;;;;5021091;28;8881;-76
2021/09/10 06:27:13;;;;;;;;;3.80;3.80;;;;;;;;5021604;28;8884;-79
2021/09/10 06:29:40;;;;;;;;;6.40;5.00;;;;;;;;5020732;28;8850;-77
2021/09/10 06:32:08;;;;;;;;;3.80;3.80;;;;;;;;5019518;28;8845;-80
2021/09/10 06:34:35;;;;;;;;;5.20;5.20;;;;;;;;5019681;28;8892;-80
2021/09/10 06:37:04;;;;;;;;;6.20;6.20;;;;;;;;5021207;28;9008;-79
2021/09/10 06:39:32;;;;;;;;;6.00;6.00;;;;;;;;5022371;28;8882;-76
2021/09/10 06:41:59;;;;;;;;;4.80;4.80;;;;;;;;5022116;28;8850;-77
2021/09/10 06:44:27;;;;;;;;;4.40;4.40;;;;;;;;5022199;28;8834;-79
2021/09/10 06:46:54;;;;;;;;;6.00;6.00;;;;;;;;5021773;28;9031;-75
2021/09/10 06:49:21;;;;;;;;;5.00;5.00;;;;;;;;5024012;28;8908;-75
2021/09/10 06:51:48;;;;;;;;;5.00;5.00;;;;;;;;5022492;28;9004;-80
2021/09/10 06:54:17;;;;;;;;;4.60;4.20;;;;;;;;5024268;28;8972;-78
2021/09/10 06:56:45;;;;;;;;;5.00;5.00;;;;;;;;5023267;28;8900;-76
2021/09/10 06:59:16;;;;;;;;;2.60;2.60;;;;;;;;5023548;28;8996;-83
2021/09/10 07:01:43;;;;;;;;;7.60;6.80;;;;;;;;5021760;28;8805;-76
2021/09/10 07:04:11;;;;;;;;;5.00;5.00;;;;;;;;5023000;28;8892;-77
2021/09/10 07:06:39;;;;;;;;;5.40;3.80;;;;;;;;5022174;28;9000;-76
2021/09/10 07:09:06;;;;;;;;;6.80;6.80;;;;;;;;5023760;28;8869;-75
2021/09/10 07:11:35;;;;;;;;;5.40;5.20;;;;;;;;5023526;28;8983;-77
2021/09/10 07:14:04;;;;;;;;;7.20;7.20;;;;;;;;5023218;28;8996;-75
2021/09/10 07:16:32;;;;;;;;;8.80;7.00;;;;;;;;5023069;28;9007;-77
2021/09/10 07:18:59;;;;;;;;;6.80;6.80;;;;;;;;5023819;28;8862;-79
2021/09/10 07:21:27;;;;;;;;;7.00;5.60;;;;;;;;5023025;28;8849;-78
2021/09/10 07:23:54;;;;;;;;;5.40;5.40;;;;;;;;5027621;28;8854;-75
2021/09/10 07:26:23;;;;;;;;;7.00;5.00;;;;;;;;5026573;28;8854;-80
2021/09/10 07:28:52;;;;;;;;;5.00;5.00;;;;;;;;5026749;28;8885;-76
2021/09/10 07:31:20;;;;;;;;;8.20;7.60;;;;;;;;5024746;28;9701;-76
2021/09/10 07:33:48;;;;;;;;;6.40;6.40;;;;;;;;5026750;28;8897;-75
2021/09/10 07:36:15;;;;;;;;;7.40;5.40;;;;;;;;5025938;28;8895;-75
2021/09/10 07:38:42;;;;;;;;;6.40;5.80;;;;;;;;5026024;28;8881;-78
2021/09/10 07:41:10;;;;;;;;;6.20;5.00;;;;;;;;5026988;28;8849;-74
2021/09/10 07:43:37;;;;;;;;;7.40;7.20;;;;;;;;5025462;28;8898;-75
2021/09/10 07:46:06;;;;;;;;;6.00;5.40;;;;;;;;5025377;28;8886;-73
2021/09/10 07:48:33;;;;;;;;;4.00;4.00;;;;;;;;5026619;28;8879;-81
2021/09/10 07:51:00;;;;;;;;;6.80;6.80;;;;;;;;5025566;28;8890;-74
2021/09/10 07:53:28;;;;;;;;;4.00;4.00;;;;;;;;5025688;28;8946;-74
2021/09/10 07:55:56;;;;;;;;;7.20;7.20;;;;;;;;5025333;28;8896;-75
2021/09/10 07:58:23;;;;;;;;;8.00;6.40;;;;;;;;5026160;28;8861;-75
2021/09/10 08:00:51;;;;;;;;;6.00;6.00;;;;;;;;5023468;28;8826;-74
2021/09/10 08:03:19;;;;;;;;;7.40;7.40;;;;;;;;5025394;28;8873;-85
2021/09/10 08:05:47;;;;;;;;;7.80;6.00;;;;;;;;5023307;28;8956;-79
2021/09/10 08:08:14;;;;;;;;;9.80;6.60;;;;;;;;5025329;28;8862;-75
2021/09/10 08:10:42;;;;;;;;;3.60;3.60;;;;;;;;5025253;28;8979;-84
2021/09/10 08:13:09;;;;;;;;;5.60;5.60;;;;;;;;5022598;28;8861;-86
2021/09/10 08:15:38;;;;;;;;;6.40;6.40;;;;;;;;5025401;28;8912;-79
2021/09/10 08:18:06;;;;;;;;;5.80;5.80;;;;;;;;5023835;28;8865;-75
2021/09/10 08:20:34;;;;;;;;;7.00;5.40;;;;;;;;5024642;28;8865;-83
2021/09/10 08:23:02;;;;;;;;;4.60;4.60;;;;;;;;5025351;28;8895;-82
2021/09/10 08:25:29;;;;;;;;;6.60;5.00;;;;;;;;5012029;28;9028;-82
2021/09/10 08:30:49;;;;;;;;;6.40;6.20;;;;;;;;5566680;22;8928;-83
2021/09/10 08:33:18;;;;;;;;;6.80;6.00;;;;;;;;4962964;28;8854;-83
2021/09/10 08:35:47;;;;;;;;;8.00;8.00;;;;;;;;4965417;28;8959;-83
2021/09/10 08:38:14;;;;;;;;;7.00;7.00;;;;;;;;4965199;28;9809;-84
2021/09/10 08:40:42;;;;;;;;;8.00;6.80;;;;;;;;4965012;28;8866;-83
2021/09/10 08:43:10;;;;;;;;;6.00;6.00;;;;;;;;4964025;28;8893;-83
2021/09/10 08:45:47;;;;;;;;;;;;;;;;;;;;;
2021/09/10 08:48:20;;;;;;;;;6.40;6.40;;;;;;;;4916947;28;8865;-82
2021/09/10 08:50:49;;;;;;;;;6.60;6.60;;;;;;;;4966198;28;8896;-83
2021/09/10 08:53:16;;;;;;;;;10.60;10.60;;;;;;;;4963656;28;8935;-83
2021/09/10 08:55:44;;;;;;;;;10.00;10.00;;;;;;;;4965517;28;9513;-83
2021/09/10 08:58:11;;;;;;;;;9.60;9.60;;;;;;;;4967547;28;8869;-83
2021/09/10 09:00:41;;;;;;;;;9.60;8.00;;;;;;;;4966642;28;8821;-83
2021/09/10 09:03:10;;;;;;;;;10.40;9.00;;;;;;;;4964707;28;8873;-83
2021/09/10 09:05:38;;;;;;;;;8.80;8.80;;;;;;;;4963903;28;9182;-82
2021/09/10 09:08:10;;;;;;;;;11.60;8.60;;;;;;;;4968588;28;8886;-83
2021/09/10 09:10:57;;;;;;;;;8.20;8.20;;;;;;;;4967106;28;8901;-84
2021/09/10 09:13:25;;;;;;;;;8.00;8.00;;;;;;;;4966026;28;8951;-82
2021/09/10 09:16:12;;;;;;;;;9.40;9.40;;;;;;;;4966160;28;8907;-82
2021/09/10 09:18:40;;;;;;;;;9.40;8.40;;;;;;;;4964540;28;8926;-83
2021/09/10 09:21:08;;;;;;;;;8.20;8.20;;;;;;;;4964325;28;8952;-83
2021/09/10 09:23:36;;;;;;;;;7.00;7.00;;;;;;;;4966796;28;8936;-82
2021/09/10 09:26:14;;;;;;;;;8.40;8.40;;;;;;;;4965758;28;8897;-83
2021/09/10 09:28:42;;;;;;;;;9.40;8.20;;;;;;;;4964534;28;8903;-84
2021/09/10 09:31:10;;;;;;;;;8.00;8.00;;;;;;;;4964947;28;8802;-83
2021/09/10 09:33:38;;;;;;;;;8.40;8.40;;;;;;;;4964939;28;8893;-82
2021/09/10 09:36:08;;;;;;;;;8.60;8.60;;;;;;;;4965171;28;8908;-83
2021/09/10 09:38:38;;;;;;;;;8.20;8.20;;;;;;;;4967072;28;8889;-82
2021/09/10 09:41:08;;;;;;;;;8.00;8.00;;;;;;;;4966010;28;8901;-83
2021/09/10 09:43:37;;;;;;;;;8.00;8.00;;;;;;;;4960068;28;9798;-83
2021/09/10 09:46:08;;;;;;;;;8.60;7.60;;;;;;;;4964512;28;8939;-83
2021/09/10 09:51:21;;;;;;;;;6.40;6.40;;;;;;;;4965751;28;9059;-82
2021/09/10 09:53:50;;;;;;;;;7.40;7.40;;;;;;;;4965125;28;8897;-83
2021/09/10 09:56:18;;;;;;;;;9.20;7.80;;;;;;;;4966408;28;8897;-81
2021/09/10 09:58:47;;;;;;;;;9.40;7.80;;;;;;;;4965574;28;8955;-82
2021/09/10 10:01:14;;;;;;;;;8.80;7.20;;;;;;;;4965711;28;8829;-82
2021/09/10 10:03:42;;;;;;;;;6.80;6.80;;;;;;;;4965243;28;9003;-82
2021/09/10 10:06:19;;;;;;;;;9.60;8.20;;;;;;;;4969043;28;8866;-82
2021/09/10 10:08:53;;;;;;;;;6.00;6.00;;;;;;;;4971316;28;8866;-82
2021/09/10 10:11:22;;;;;;;;;10.00;7.40;;;;;;;;4953993;28;8908;-82
2021/09/10 10:13:56;;;;;;;;;6.20;6.20;;;;;;;;4959792;28;9802;-81
2021/09/10 10:16:37;;;;;;;;;6.00;6.00;;;;;;;;4964587;28;8889;-79
2021/09/10 10:19:05;;;;;;;;;4.20;4.20;;;;;;;;4967931;28;9066;-81
2021/09/10 10:21:53;;;;;;;;;6.00;6.00;;;;;;;;4963208;28;8869;-81
2021/09/10 10:24:47;;;;;;;;;5.20;5.20;;;;;;;;4966006;28;9735;-79
2021/09/10 10:27:30;;;;;;;;;4.60;4.60;;;;;;;;4967079;28;8897;-81
2021/09/10 10:29:58;;;;;;;;;4.20;4.20;;;;;;;;4965751;28;9666;-81
2021/09/10 10:32:37;;;;;;;;;6.20;4.60;;;;;;;;4966558;28;8869;-80
2021/09/10 10:35:20;;;;;;;;;4.00;4.00;;;;;;;;4964131;28;8841;-80
2021/09/10 10:37:48;;;;;;;;;3.80;3.80;;;;;;;;4964040;28;8877;-81
2021/09/10 10:40:42;;;;;;;;;4.00;4.00;;;;;;;;4965924;28;8901;-78
2021/09/10 10:43:11;;;;;;;;;10.00;6.40;;;;;;;;4951350;28;9020;-80
2021/09/10 10:46:12;;;;;;;;;6.40;5.80;;;;;;;;4963830;28;8889;-80
2021/09/10 10:49:00;;;;;;;;;8.20;6.40;;;;;;;;4972896;28;8880;-83
2021/09/10 10:51:51;;;;;;;;;6.40;6.40;;;;;;;;4957021;28;9668;-77
2021/09/10 10:54:19;;;;;;;;;8.40;8.40;;;;;;;;4947048;28;8866;-77
2021/09/10 10:56:51;;;;;;;;;6.00;5.00;;;;;;;;4963173;28;8857;-75
2021/09/10 10:59:35;;;;;;;;;7.40;7.40;;;;;;;;4960522;28;8873;-78
2021/09/10 11:02:35;;;;;;;;;6.60;6.60;;;;;;;;4960080;28;8936;-78
2021/09/10 11:05:20;;;;;;;;;6.20;6.20;;;;;;;;4961568;28;8851;-77
2021/09/10 11:07:48;;;;;;;;;6.20;6.20;;;;;;;;4962747;28;8889;-76
2021/09/10 11:10:18;;;;;;;;;5.20;4.00;;;;;;;;4961921;28;8861;-77
2021/09/10 11:12:48;;;;;;;;;2.80;1.80;;;;;;;;4953470;28;8862;-82
2021/09/10 11:15:24;;;;;;;;;3.00;2.00;;;;;;;;4968077;28;8885;-79
2021/09/10 11:17:56;;;;;;;;;1.40;1.00;;;;;;;;4961652;28;8980;-78
2021/09/10 11:20:28;;;;;;;;;4.00;1.00;;;;;;;;4962277;28;8895;-78
2021/09/10 11:22:56;;;;;;;;;2.00;2.00;;;;;;;;4963404;28;8923;-79
2021/09/10 11:25:23;;;;;;;;;2.00;2.00;;;;;;;;4962991;28;8989;-80
2021/09/10 11:27:53;;;;;;;;;1.00;1.00;;;;;;;;4963662;28;8861;-84
2021/09/10 11:30:20;;;;;;;;;1.60;1.60;;;;;;;;4969179;28;8884;-81
2021/09/10 11:32:48;;;;;;;;;0.00;0.00;;;;;;;;4962762;28;8889;-81
2021/09/10 11:35:20;;;;;;;;;0.20;0.20;;;;;;;;4959957;28;8872;-81
2021/09/10 11:37:56;;;;;;;;;3.40;1.80;;;;;;;;4964559;28;8861;-83
2021/09/10 11:40:34;;;;;;;;;1.40;1.40;;;;;;;;4964501;28;8899;-79
2021/09/10 11:43:06;;;;;;;;;1.00;1.00;;;;;;;;4962427;28;8869;-78
2021/09/10 11:45:35;;;;;;;;;0.80;0.80;;;;;;;;4964671;28;8999;-77
2021/09/10 11:48:05;;;;;;;;;2.40;1.40;;;;;;;;4962824;28;8913;-79
2021/09/10 11:50:53;;;;;;;;;1.60;1.60;;;;;;;;4963862;28;9003;-78
2021/09/10 11:53:23;;;;;;;;;1.40;1.40;;;;;;;;4960978;28;8992;-78
2021/09/10 11:56:01;;;;;;;;;1.00;1.00;;;;;;;;4959650;28;8901;-77
2021/09/10 11:58:34;;;;;;;;;1.00;1.00;;;;;;;;4961528;28;8881;-79
2021/09/10 12:01:21;;;;;;;;;1.80;1.80;;;;;;;;4961078;28;8843;-78
2021/09/10 12:03:51;;;;;;;;;2.00;2.00;;;;;;;;4960726;28;8869;-76
2021/09/10 12:06:20;;;;;;;;;0.60;0.60;;;;;;;;4965528;28;9015;-78
2021/09/10 12:09:16;;;;;;;;;1.00;1.00;;;;;;;;4965084;28;8881;-78
2021/09/10 12:12:05;;;;;;;;;2.20;2.20;;;;;;;;4966667;28;8943;-80
2021/09/10 12:14:39;;;;;;;;;2.80;1.80;;;;;;;;4963368;28;8873;-76
2021/09/10 12:17:22;;;;;;;;;2.20;2.20;;;;;;;;4966327;28;8881;-75
2021/09/10 12:20:07;;;;;;;;;5.00;3.80;;;;;;;;4966354;28;8870;-76
2021/09/10 12:22:43;;;;;;;;;0.60;0.60;;;;;;;;4963711;28;8885;-78
2021/09/10 12:25:22;;;;;;;;;4.20;2.80;;;;;;;;4966180;28;8971;-77
2021/09/10 12:27:50;;;;;;;;;3.00;2.00;;;;;;;;4965092;28;8866;-77
2021/09/10 12:30:21;;;;;;;;;2.40;2.40;;;;;;;;4965154;28;8861;-76
2021/09/10 12:32:48;;;;;;;;;3.80;2.00;;;;;;;;4966673;28;8893;-78
2021/09/10 12:35:15;;;;;;;;;7.00;7.00;;;;;;;;4964302;28;8889;-77
2021/09/10 12:37:51;;;;;;;;;7.80;6.40;;;;;;;;4965316;28;8861;-80
2021/09/10 12:40:21;;;;;;;;;5.40;5.40;;;;;;;;4964570;28;8866;-80
2021/09/10 12:42:49;;;;;;;;;5.00;5.00;;;;;;;;4965256;28;9015;-77
2021/09/10 12:45:18;;;;;;;;;2.20;2.20;;;;;;;;4963401;28;8904;-78
2021/09/10 12:47:46;;;;;;;;;5.00;5.00;;;;;;;;4967608;28;8873;-79
2021/09/10 12:50:14;;;;;;;;;6.00;6.00;;;;;;;;4967864;28;8877;-79
2021/09/10 12:52:41;;;;;;;;;4.60;4.60;;;;;;;;4965493;28;8870;-78
2021/09/10 12:55:10;;;;;;;;;3.40;3.40;;;;;;;;4968251;28;8901;-79
2021/09/10 12:57:38;;;;;;;;;4.00;4.00;;;;;;;;4957094;28;9003;-78
2021/09/10 13:00:07;;;;;;;;;2.40;2.40;;;;;;;;4967409;28;8959;-78
2021/09/10 13:02:36;;;;;;;;;2.80;2.80;;;;;;;;4966605;28;8909;-78
2021/09/10 13:05:04;;;;;;;;;1.80;1.80;;;;;;;;4963539;28;8881;-78
2021/09/10 13:07:31;;;;;;;;;0.20;0.20;;;;;;;;4976357;28;8869;-77
2021/09/10 13:09:58;;;;;;;;;1.40;1.40;;;;;;;;4966578;28;8911;-76
2021/09/10 13:12:25;;;;;;;;;0.00;0.00;;;;;;;;4968303;28;8862;-78
2021/09/10 13:14:53;;;;;;;;;0.40;0.40;;;;;;;;4977354;28;8878;-78
2021/09/10 13:17:23;;;;;;;;;0.00;0.00;;;;;;;;4979903;28;8897;-76
2021/09/10 13:19:53;;;;;;;;;0.00;0.00;;;;;;;;4966112;28;8897;-77
2021/09/10 13:22:21;;;;;;;;;0.20;0.20;;;;;;;;4966797;28;8897;-76
2021/09/10 13:24:48;;;;;;;;;1.20;1.20;;;;;;;;4967261;28;9568;-78
2021/09/10 13:27:17;;;;;;;;;1.40;1.40;;;;;;;;4966035;28;8931;-77
2021/09/10 13:29:45;;;;;;;;;1.00;1.00;;;;;;;;4966987;28;8885;-76
2021/09/10 13:32:13;;;;;;;;;0.00;0.00;;;;;;;;4964498;28;8844;-77
2021/09/10 13:34:40;;;;;;;;;0.60;0.60;;;;;;;;4966577;28;8877;-79
2021/09/10 13:37:11;;;;;;;;;0.00;0.00;;;;;;;;4965020;28;9655;-77
2021/09/10 13:39:39;;;;;;;;;1.80;1.80;;;;;;;;4962895;28;8908;-76
2021/09/10 13:42:07;;;;;;;;;0.80;0.80;;;;;;;;4966742;28;8909;-76
2021/09/10 13:44:34;;;;;;;;;0.60;0.60;;;;;;;;4964049;28;8885;-76
2021/09/10 13:47:02;;;;;;;;;1.40;1.40;;;;;;;;4966313;28;8878;-78
2021/09/10 13:49:29;;;;;;;;;1.60;1.60;;;;;;;;4964784;28;8882;-76
2021/09/10 13:51:57;;;;;;;;;1.60;1.00;;;;;;;;4965346;28;9474;-77
2021/09/10 13:54:26;;;;;;;;;1.00;1.00;;;;;;;;4965544;28;8865;-78
2021/09/10 13:56:53;;;;;;;;;1.40;1.40;;;;;;;;4966668;28;8884;-79
2021/09/10 13:59:22;;;;;;;;;1.40;1.40;;;;;;;;4966119;28;8991;-76
2021/09/10 14:01:50;;;;;;;;;1.80;1.80;;;;;;;;4965332;28;8822;-78
2021/09/10 14:04:18;;;;;;;;;1.80;1.80;;;;;;;;4958969;28;8948;-79
2021/09/10 14:06:45;;;;;;;;;1.00;1.00;;;;;;;;4974396;28;8866;-76
2021/09/10 14:09:12;;;;;;;;;1.80;1.80;;;;;;;;4968896;28;8905;-79
2021/09/10 14:11:41;;;;;;;;;2.80;2.80;;;;;;;;4965399;28;9116;-78
2021/09/10 14:14:09;;;;;;;;;1.00;1.00;;;;;;;;4967003;28;8999;-78
2021/09/10 14:16:37;;;;;;;;;0.00;0.00;;;;;;;;4965748;28;8870;-79
2021/09/10 14:19:04;;;;;;;;;2.60;1.60;;;;;;;;4965292;28;8892;-79
2021/09/10 14:21:31;;;;;;;;;2.00;2.00;;;;;;;;4966484;28;8896;-78
2021/09/10 14:23:59;;;;;;;;;1.60;1.60;;;;;;;;4964753;28;9744;-79
2021/09/10 14:26:26;;;;;;;;;2.40;2.40;;;;;;;;4966567;28;8900;-79
2021/09/10 14:28:55;;;;;;;;;0.00;0.00;;;;;;;;4966750;28;8873;-77
2021/09/10 14:31:23;;;;;;;;;3.40;2.20;;;;;;;;4966070;28;8810;-77
2021/09/10 14:33:52;;;;;;;;;2.80;2.80;;;;;;;;4965782;28;8845;-76
2021/09/10 14:36:19;;;;;;;;;3.00;3.00;;;;;;;;4964506;28;8984;-78
2021/09/10 14:38:47;;;;;;;;;1.80;1.80;;;;;;;;4965799;28;8909;-75
2021/09/10 14:41:14;;;;;;;;;1.40;1.40;;;;;;;;4963940;28;8881;-76
2021/09/10 14:43:41;;;;;;;;;4.80;3.00;;;;;;;;4965213;28;8996;-77
2021/09/10 14:46:10;;;;;;;;;2.00;2.00;;;;;;;;4964047;28;8869;-75
2021/09/10 14:48:41;;;;;;;;;2.00;2.00;;;;;;;;4965962;28;9612;-75
2021/09/10 14:51:09;;;;;;;;;2.00;2.00;;;;;;;;4965102;28;8920;-77
2021/09/10 14:53:37;;;;;;;;;3.20;2.00;;;;;;;;4965383;28;8890;-76
2021/09/10 14:56:06;;;;;;;;;0.80;0.80;;;;;;;;4965659;28;9675;-77
2021/09/10 14:58:33;;;;;;;;;2.00;2.00;;;;;;;;4964794;28;8951;-77
2021/09/10 15:01:03;;;;;;;;;0.60;0.60;;;;;;;;4964725;28;8841;-77
2021/09/10 15:03:32;;;;;;;;;2.60;2.60;;;;;;;;4953537;28;8880;-78
2021/09/10 15:05:59;;;;;;;;;1.20;1.20;;;;;;;;4968579;28;8993;-76
2021/09/10 15:08:27;;;;;;;;;2.00;2.00;;;;;;;;4972679;28;8885;-77
2021/09/10 15:10:54;;;;;;;;;2.80;2.80;;;;;;;;4964930;28;8904;-75
2021/09/10 15:13:23;;;;;;;;;3.00;3.00;;;;;;;;4964329;28;9008;-75
2021/09/10 15:15:51;;;;;;;;;3.80;3.00;;;;;;;;4965047;28;8901;-78